createdAt,value
2022-12-23T00:03:28.807Z,100817.91
2022-12-23T00:05:56.866Z,100815.44
2022-12-23T00:08:25.825Z,100824.16
2022-12-23T00:10:56.744Z,100817.81
2022-12-23T00:13:43.319Z,100818.66
2022-12-23T00:16:13.903Z,100809.59
2022-12-23T00:18:42.733Z,100795.66
2022-12-23T00:21:13.321Z,100797.47
2022-12-23T00:23:46.233Z,100791.28
2022-12-23T00:26:18.274Z,100787.09
2022-12-23T00:28:45.930Z,100782.66
2022-12-23T00:31:14.406Z,100788.72
2022-12-23T00:33:44.859Z,100798.53
2022-12-23T00:36:14.050Z,100798.53
2022-12-23T00:39:00.299Z,100799.41
2022-12-23T00:41:46.627Z,100811.63
2022-12-23T00:44:14.404Z,100823.75
2022-12-23T00:46:42.103Z,100822.75
2022-12-23T00:49:31.591Z,100811.50
2022-12-23T00:51:59.925Z,100825.47
2022-12-23T00:54:27.819Z,100826.38
2022-12-23T00:56:55.594Z,100832.56
2022-12-23T00:59:23.176Z,100828.41
2022-12-23T01:02:09.819Z,100836.22
2022-12-23T01:04:56.149Z,100841.38
2022-12-23T01:07:24.291Z,100837.84
2022-12-23T01:09:51.963Z,100836.72
2022-12-23T01:12:19.809Z,100838.63
2022-12-23T01:14:47.567Z,100825.78
2022-12-23T01:17:15.307Z,100826.81
2022-12-23T01:19:43.019Z,100833.78
2022-12-23T01:22:16.607Z,100843.22
2022-12-23T01:24:44.244Z,100843.41
2022-12-23T01:27:11.865Z,100840.50
2022-12-23T01:29:39.513Z,100819.28
2022-12-23T01:32:07.143Z,100820.03
2022-12-23T01:34:37.385Z,100855.19
2022-12-23T01:37:05.593Z,100843.13
2022-12-23T01:39:33.259Z,100822.22
2022-12-23T01:42:19.807Z,100825.91
2022-12-23T01:45:09.663Z,100821.34
2022-12-23T01:47:42.837Z,100802.97
2022-12-23T01:50:22.306Z,100799.53
2022-12-23T01:52:51.912Z,100793.53
2022-12-23T01:55:23.005Z,100804.91
2022-12-23T01:57:53.339Z,100805.72
2022-12-23T02:00:39.695Z,100803.97
2022-12-23T02:03:39.775Z,100799.75
2022-12-23T02:06:27.680Z,100800.06
2022-12-23T02:09:14.042Z,100808.09
2022-12-23T02:12:18.698Z,100825.66
2022-12-23T02:15:21.896Z,100811.63
2022-12-23T02:18:02.222Z,100807.44
2022-12-23T02:20:49.303Z,100804.84
2022-12-23T02:23:38.258Z,100809.13
2022-12-23T02:26:42.805Z,100808.25
2022-12-23T02:30:04.796Z,100806.53
2022-12-23T02:32:35.199Z,100794.31
2022-12-23T02:35:32.539Z,100794.25
2022-12-23T02:38:10.421Z,100787.25
2022-12-23T02:40:40.833Z,100792.50
2022-12-23T02:43:18.919Z,100799.44
2022-12-23T02:45:52.517Z,100787.19
2022-12-23T02:48:39.031Z,100788.94
2022-12-23T02:51:09.705Z,100791.50
2022-12-23T02:53:47.614Z,100783.78
2022-12-23T02:56:17.917Z,100774.16
2022-12-23T02:58:53.373Z,100770.63
2022-12-23T03:01:21.035Z,100775.03
2022-12-23T03:03:51.073Z,100772.44
2022-12-23T03:06:30.209Z,100782.03
2022-12-23T03:08:59.968Z,100774.13
2022-12-23T03:11:40.355Z,100776.78
2022-12-23T03:14:14.831Z,100770.69
2022-12-23T03:17:03.539Z,100772.28
2022-12-23T03:19:33.939Z,100779.97
2022-12-23T03:22:37.230Z,100773.94
2022-12-23T03:25:13.963Z,100783.63
2022-12-23T03:27:52.650Z,100774.00
2022-12-23T03:30:21.211Z,100768.75
2022-12-23T03:33:20.971Z,100777.56
2022-12-23T03:36:03.647Z,100772.41
2022-12-23T03:38:33.878Z,100774.41
2022-12-23T03:41:08.075Z,100775.16
2022-12-23T03:43:46.745Z,100768.22
2022-12-23T03:46:25.494Z,100748.91
2022-12-23T03:48:58.890Z,100750.84
2022-12-23T03:51:34.925Z,100753.34
2022-12-23T03:54:10.673Z,100761.84
2022-12-23T03:56:43.422Z,100761.06
2022-12-23T03:59:20.307Z,100762.88
2022-12-23T04:01:54.062Z,100763.84
2022-12-23T04:04:42.121Z,100763.88
2022-12-23T04:07:17.537Z,100764.47
2022-12-23T04:09:45.264Z,100752.28
2022-12-23T04:12:15.110Z,100751.56
2022-12-23T04:14:48.037Z,100745.44
2022-12-23T04:17:16.592Z,100740.25
2022-12-23T04:19:45.822Z,100746.34
2022-12-23T04:22:15.041Z,100743.66
2022-12-23T04:24:43.195Z,100752.53
2022-12-23T04:27:14.170Z,100743.81
2022-12-23T04:29:42.757Z,100741.06
2022-12-23T04:32:10.869Z,100745.44
2022-12-23T04:34:39.572Z,100755.03
2022-12-23T04:37:07.385Z,100755.84
2022-12-23T04:39:35.054Z,100759.25
2022-12-23T04:42:02.740Z,100759.28
2022-12-23T04:44:30.532Z,100746.19
2022-12-23T04:46:58.368Z,100761.09
2022-12-23T04:49:26.063Z,100768.19
2022-12-23T04:51:53.661Z,100761.91
2022-12-23T04:54:21.285Z,100764.63
2022-12-23T04:56:48.992Z,100762.81
2022-12-23T04:59:16.682Z,100762.09
2022-12-23T05:01:44.736Z,100757.63
2022-12-23T05:04:13.414Z,100752.13
2022-12-23T05:06:41.179Z,100759.31
2022-12-23T05:09:09.108Z,100761.66
2022-12-23T05:11:41.935Z,100751.25
2022-12-23T05:14:10.925Z,100744.28
2022-12-23T05:16:39.175Z,100751.41
2022-12-23T05:19:07.173Z,100750.56
2022-12-23T05:21:34.827Z,100764.59
2022-12-23T05:24:02.463Z,100764.53
2022-12-23T05:26:30.058Z,100766.34
2022-12-23T05:28:57.699Z,100775.97
2022-12-23T05:31:25.512Z,100773.16
2022-12-23T05:33:53.272Z,100773.34
2022-12-23T05:36:20.923Z,100766.13
2022-12-23T05:38:48.692Z,100762.47
2022-12-23T05:41:17.043Z,100754.63
2022-12-23T05:43:44.671Z,100753.84
2022-12-23T05:46:12.626Z,100764.31
2022-12-23T05:48:40.310Z,100769.59
2022-12-23T05:51:07.975Z,100773.19
2022-12-23T05:53:35.572Z,100771.44
2022-12-23T05:56:07.815Z,100767.88
2022-12-23T05:58:37.616Z,100765.22
2022-12-23T06:01:05.726Z,100758.31
2022-12-23T06:03:33.605Z,100759.06
2022-12-23T06:06:01.363Z,100765.25
2022-12-23T06:08:29.183Z,100766.16
2022-12-23T06:10:56.870Z,100773.16
2022-12-23T06:13:24.386Z,100778.28
2022-12-23T06:15:51.935Z,100779.22
2022-12-23T06:18:19.498Z,100776.41
2022-12-23T06:20:47.821Z,100785.19
2022-12-23T06:23:15.423Z,100785.13
2022-12-23T06:25:52.607Z,100799.94
2022-12-23T06:28:20.457Z,100797.25
2022-12-23T06:31:42.032Z,100805.16
2022-12-23T06:34:20.139Z,100796.50
2022-12-23T06:36:56.204Z,100797.34
2022-12-23T06:39:32.168Z,100790.47
2022-12-23T06:42:08.154Z,100799.06
2022-12-23T06:44:44.620Z,100813.06
2022-12-23T06:47:12.355Z,100806.91
2022-12-23T06:49:39.884Z,100813.88
2022-12-23T06:52:07.486Z,100829.50
2022-12-23T06:54:35.174Z,100831.28
2022-12-23T06:57:02.735Z,100814.63
2022-12-23T06:59:30.861Z,100812.06
2022-12-23T07:01:58.647Z,100813.97
2022-12-23T07:04:26.413Z,100816.59
2022-12-23T07:06:54.005Z,100819.22
2022-12-23T07:09:21.630Z,100810.53
2022-12-23T07:11:49.233Z,100818.88
2022-12-23T07:14:17.691Z,100844.41
2022-12-23T07:16:45.455Z,100837.59
2022-12-23T07:19:13.310Z,100824.56
2022-12-23T07:21:47.428Z,100801.75
2022-12-23T07:24:15.030Z,100816.75
2022-12-23T07:26:42.594Z,100831.72
2022-12-23T07:29:10.134Z,100834.25
2022-12-23T07:31:40.891Z,100830.75
2022-12-23T07:34:09.546Z,100824.88
2022-12-23T07:36:37.260Z,100827.59
2022-12-23T07:39:04.947Z,100812.63
2022-12-23T07:41:32.620Z,100822.28
2022-12-23T07:44:07.830Z,100814.38
2022-12-23T07:46:35.532Z,100817.91
2022-12-23T07:49:03.188Z,100827.69
2022-12-23T07:51:30.913Z,100820.56
2022-12-23T07:53:58.639Z,100830.09
2022-12-23T07:56:26.253Z,100824.97
2022-12-23T07:58:54.420Z,100829.31
2022-12-23T08:01:22.297Z,100822.41
2022-12-23T08:03:50.164Z,100820.59
2022-12-23T08:06:17.874Z,100822.47
2022-12-23T08:08:46.710Z,100836.56
2022-12-23T08:11:15.604Z,100819.03
2022-12-23T08:13:44.804Z,100834.78
2022-12-23T08:16:12.695Z,100840.97
2022-12-23T08:18:42.152Z,100841.69
2022-12-23T08:21:15.175Z,100850.50
2022-12-23T08:23:43.741Z,100846.09
2022-12-23T08:26:19.909Z,100829.63
2022-12-23T08:28:48.694Z,100825.22
2022-12-23T08:31:28.485Z,100835.56
2022-12-23T08:33:57.735Z,100846.88
2022-12-23T08:36:28.251Z,100855.69
2022-12-23T08:38:58.371Z,100839.97
2022-12-23T08:41:32.009Z,100839.13
2022-12-23T08:43:59.744Z,100833.13
2022-12-23T08:46:28.427Z,100822.63
2022-12-23T08:48:56.382Z,100827.78
2022-12-23T08:51:25.802Z,100832.28
2022-12-23T08:54:00.162Z,100834.19
2022-12-23T08:56:32.512Z,100823.72
2022-12-23T08:59:01.063Z,100837.84
2022-12-23T09:01:31.553Z,100829.09
2022-12-23T09:04:01.711Z,100822.91
2022-12-23T09:06:34.670Z,100824.53
2022-12-23T09:09:02.400Z,100834.28
2022-12-23T09:11:30.275Z,100841.44
2022-12-23T09:14:00.493Z,100849.34
2022-12-23T09:16:29.565Z,100842.28
2022-12-23T09:18:57.733Z,100843.13
2022-12-23T09:21:25.375Z,100845.94
2022-12-23T09:23:53.054Z,100850.41
2022-12-23T09:26:23.961Z,100850.31
2022-12-23T09:28:51.652Z,100849.44
2022-12-23T09:31:22.268Z,100858.06
2022-12-23T09:34:16.352Z,100860.00
2022-12-23T09:40:24.982Z,100846.00
2022-12-23T09:43:37.193Z,100852.16
2022-12-23T09:46:57.857Z,100837.97
2022-12-23T09:59:05.979Z,100852.69
2022-12-23T10:01:57.221Z,100857.88
2022-12-23T10:04:39.921Z,100864.25
2022-12-23T10:07:22.870Z,100874.72
2022-12-23T10:14:28.856Z,100875.69
2022-12-23T10:17:07.858Z,100866.09
2022-12-23T10:19:43.187Z,100866.13
2022-12-23T10:22:16.222Z,100864.38
2022-12-23T10:24:48.491Z,100847.78
2022-12-23T10:27:40.246Z,100852.13
2022-12-23T10:30:42.022Z,100860.94
2022-12-23T10:33:56.311Z,100841.56
2022-12-23T10:36:45.092Z,100838.03
2022-12-23T10:39:24.096Z,100856.44
2022-12-23T10:42:10.944Z,100838.94
2022-12-23T10:44:54.222Z,100840.66
2022-12-23T10:47:49.348Z,100839.84
2022-12-23T10:50:34.799Z,100840.75
2022-12-23T10:53:05.971Z,100835.47
2022-12-23T10:55:38.439Z,100840.63
2022-12-23T10:58:13.497Z,100818.78
2022-12-23T11:00:51.409Z,100823.22
2022-12-23T11:03:29.745Z,100809.19
2022-12-23T11:10:13.494Z,100813.53
2022-12-23T11:12:44.220Z,100816.03
2022-12-23T11:15:37.892Z,100824.03
2022-12-23T11:18:14.432Z,100816.13
2022-12-23T11:20:45.015Z,100803.13
2022-12-23T11:23:26.602Z,100814.41
2022-12-23T11:26:20.673Z,100824.06
2022-12-23T11:28:56.609Z,100804.00
2022-12-23T11:31:33.628Z,100797.00
2022-12-23T11:34:06.275Z,100803.13
2022-12-23T11:36:34.649Z,100795.03
2022-12-23T11:39:13.519Z,100797.69
2022-12-23T11:41:50.173Z,100781.13
2022-12-23T11:44:22.096Z,100782.09
2022-12-23T11:46:50.898Z,100768.97
2022-12-23T11:50:41.301Z,100787.34
2022-12-23T11:53:21.704Z,100772.44
2022-12-23T11:56:16.618Z,100775.06
2022-12-23T11:58:53.550Z,100775.94
2022-12-23T12:01:25.517Z,100763.69
2022-12-23T12:04:01.201Z,100756.72
2022-12-23T12:55:23.187Z,100713.78
2022-12-23T12:57:53.261Z,100701.47
2022-12-23T13:00:23.648Z,100698.91
2022-12-23T13:03:07.931Z,100722.53
2022-12-23T13:05:56.863Z,100719.94
2022-12-23T13:08:37.505Z,100716.41
2022-12-23T13:11:35.770Z,100705.91
2022-12-23T13:14:30.302Z,100710.31
2022-12-23T13:17:08.442Z,100713.81
2022-12-23T13:19:56.058Z,100721.69
2022-12-23T13:22:32.318Z,100733.94
2022-12-23T13:25:05.838Z,100742.69
2022-12-23T13:27:44.453Z,100731.28
2022-12-23T13:30:17.908Z,100745.31
2022-12-23T13:33:23.925Z,100748.81
2022-12-23T13:36:44.415Z,100768.09
2022-12-23T13:39:58.291Z,100768.94
2022-12-23T13:50:47.685Z,100748.81
2022-12-23T14:05:50.971Z,100762.78
2022-12-23T14:13:07.217Z,100775.91
2022-12-23T14:15:53.193Z,100757.56
2022-12-23T14:39:52.379Z,100779.44
2022-12-23T14:51:53.252Z,100753.19
2022-12-23T14:54:38.768Z,100752.31
2022-12-23T14:57:25.889Z,100760.19
2022-12-23T15:00:04.413Z,100768.94
2022-12-23T15:02:38.911Z,100759.31
2022-12-23T15:05:07.157Z,100753.19
2022-12-23T15:07:40.614Z,100759.31
2022-12-23T15:10:22.251Z,100762.78
2022-12-23T15:12:55.531Z,100745.28
2022-12-23T15:15:28.812Z,100748.78
2022-12-23T15:18:49.433Z,100751.44
2022-12-23T15:21:17.544Z,100731.25
2022-12-23T15:23:50.601Z,100718.09
2022-12-23T15:26:19.280Z,100716.28
2022-12-23T15:28:47.366Z,100724.19
2022-12-23T15:31:27.072Z,100719.00
2022-12-23T15:34:07.771Z,100725.84
2022-12-23T15:36:40.567Z,100719.69
2022-12-23T15:39:19.713Z,100727.63
2022-12-23T15:41:48.487Z,100726.69
2022-12-23T15:44:23.955Z,100717.97
2022-12-23T15:46:52.126Z,100713.56
2022-12-23T15:49:21.848Z,100694.31
2022-12-23T15:52:17.952Z,100689.06
2022-12-23T15:54:52.413Z,100702.25
2022-12-23T15:57:23.456Z,100714.47
2022-12-23T15:59:51.348Z,100733.66
2022-12-23T16:05:25.953Z,100755.53
2022-12-23T16:08:12.164Z,100744.19
2022-12-23T16:11:13.303Z,100734.53
2022-12-23T16:14:28.791Z,100751.13
2022-12-23T16:17:14.162Z,100756.34
2022-12-23T16:19:52.234Z,100759.84
2022-12-23T16:22:27.846Z,100756.38
2022-12-23T16:25:25.852Z,100755.53
2022-12-23T16:28:06.487Z,100751.16
2022-12-23T16:31:06.171Z,100744.03
2022-12-23T16:33:48.547Z,100745.81
2022-12-23T16:37:10.563Z,100764.06
2022-12-23T16:39:40.644Z,100763.25
2022-12-23T16:51:54.070Z,100759.00
2022-12-23T16:54:25.952Z,100757.25
2022-12-23T16:56:53.725Z,100759.91
2022-12-23T16:59:31.811Z,100762.53
2022-12-23T17:02:03.344Z,100762.59
2022-12-23T17:04:32.471Z,100778.28
2022-12-23T17:06:59.971Z,100784.44
2022-12-23T17:09:28.606Z,100780.91
2022-12-23T17:12:02.533Z,100773.03
2022-12-23T17:14:31.108Z,100761.66
2022-12-23T17:16:58.737Z,100761.59
2022-12-23T17:19:29.397Z,100748.53
2022-12-23T17:22:03.071Z,100755.56
2022-12-23T17:24:30.759Z,100752.91
2022-12-23T17:26:58.391Z,100744.94
2022-12-23T17:29:26.097Z,100756.41
2022-12-23T17:31:54.852Z,100743.22
2022-12-23T17:34:32.908Z,100757.31
2022-12-23T17:37:15.888Z,100746.81
2022-12-23T17:39:44.467Z,100752.06
2022-12-23T17:42:25.752Z,100768.66
2022-12-23T17:44:53.845Z,100772.16
2022-12-23T17:47:22.598Z,100774.81
2022-12-23T17:49:53.011Z,100779.19
2022-12-23T17:52:22.668Z,100755.56
2022-12-23T17:54:51.661Z,100754.66
2022-12-23T17:57:25.142Z,100794.91
2022-12-23T17:59:54.612Z,100812.41
2022-12-23T18:02:33.195Z,100822.03
2022-12-23T18:05:02.194Z,100817.75
2022-12-23T18:07:29.685Z,100806.31
2022-12-23T18:10:15.919Z,100806.38
2022-12-23T18:12:46.856Z,100806.31
2022-12-23T18:15:39.885Z,100808.06
2022-12-23T18:18:32.073Z,100806.34
2022-12-23T18:21:07.527Z,100800.22
2022-12-23T18:23:37.237Z,100788.03
2022-12-23T18:26:04.832Z,100796.69
2022-12-23T18:28:32.410Z,100791.47
2022-12-23T18:31:00.203Z,100784.47
2022-12-23T18:33:30.474Z,100791.44
2022-12-23T18:35:58.350Z,100787.13
2022-12-23T18:38:26.092Z,100791.50
2022-12-23T18:40:56.688Z,100797.66
2022-12-23T18:43:25.431Z,100767.78
2022-12-23T18:45:54.077Z,100779.25
2022-12-23T18:48:22.008Z,100781.88
2022-12-23T18:50:49.913Z,100777.53
2022-12-23T18:53:24.691Z,100765.28
2022-12-23T18:55:53.933Z,100760.94
2022-12-23T18:58:21.710Z,100760.09
2022-12-23T19:00:51.365Z,100774.97
2022-12-23T19:03:28.933Z,100785.47
2022-12-23T19:05:57.830Z,100781.94
2022-12-23T19:08:33.045Z,100760.09
2022-12-23T19:11:00.997Z,100759.22
2022-12-23T19:13:28.898Z,100760.09
2022-12-23T19:15:56.668Z,100742.59
2022-12-23T19:18:24.290Z,100729.50
2022-12-23T19:20:51.925Z,100725.91
2022-12-23T19:23:19.410Z,100732.91
2022-12-23T19:25:54.514Z,100745.03
2022-12-23T19:28:23.170Z,100755.59
2022-12-23T19:30:50.895Z,100757.38
2022-12-23T19:33:18.549Z,100765.25
2022-12-23T19:35:46.215Z,100794.13
2022-12-23T19:38:14.003Z,100795.91
2022-12-23T19:40:41.607Z,100802.03
2022-12-23T19:43:09.183Z,100804.66
2022-12-23T19:45:36.712Z,100796.81
2022-12-23T19:48:04.599Z,100793.28
2022-12-23T19:50:32.321Z,100801.94
2022-12-23T19:52:59.843Z,100796.63
2022-12-23T19:55:27.308Z,100794.06
2022-12-23T19:57:54.915Z,100808.06
2022-12-23T20:00:22.508Z,100811.63
2022-12-23T20:02:55.125Z,100808.06
2022-12-23T20:05:26.028Z,100799.31
2022-12-23T20:07:53.599Z,100791.53
2022-12-23T20:10:22.488Z,100774.03
2022-12-23T20:12:52.912Z,100772.25
2022-12-23T20:15:20.646Z,100761.78
2022-12-23T20:17:49.723Z,100771.44
2022-12-23T20:20:17.634Z,100788.88
2022-12-23T20:22:45.193Z,100791.56
2022-12-23T20:25:12.866Z,100789.72
2022-12-23T20:27:40.517Z,100797.66
2022-12-23T20:30:08.704Z,100792.41
2022-12-23T20:32:36.260Z,100800.31
2022-12-23T20:35:04.138Z,100792.38
2022-12-23T20:37:57.302Z,100797.66
2022-12-23T20:40:24.934Z,100803.81
2022-12-23T20:42:52.467Z,100808.16
2022-12-23T20:45:20.995Z,100799.47
2022-12-23T20:47:48.516Z,100793.25
2022-12-23T20:50:16.095Z,100799.44
2022-12-23T20:52:43.717Z,100795.09
2022-12-23T20:55:11.237Z,100792.34
2022-12-23T20:57:38.934Z,100789.78
2022-12-23T21:00:07.451Z,100800.28
2022-12-23T21:02:35.113Z,100799.34
2022-12-23T21:05:02.710Z,100805.44
2022-12-23T21:07:30.371Z,100808.97
2022-12-23T21:09:57.937Z,100811.50
2022-12-23T21:12:36.044Z,100802.75
2022-12-23T21:15:03.757Z,100818.41
2022-12-23T21:17:31.311Z,100808.78
2022-12-23T21:20:06.951Z,100804.38
2022-12-23T21:22:35.134Z,100802.72
2022-12-23T21:25:02.593Z,100789.69
2022-12-23T21:27:30.191Z,100779.19
2022-12-23T21:29:57.776Z,100787.97
2022-12-23T21:32:25.376Z,100798.44
2022-12-23T21:34:52.828Z,100798.38
2022-12-23T21:37:20.300Z,100805.41
2022-12-23T21:39:47.832Z,100804.50
2022-12-23T21:42:15.464Z,100798.31
2022-12-23T21:44:42.881Z,100805.34
2022-12-23T21:47:10.421Z,100786.94
2022-12-23T21:49:37.975Z,100811.47
2022-12-23T21:52:06.507Z,100824.59
2022-12-23T21:54:34.020Z,100834.28
2022-12-23T21:57:01.543Z,100843.97
2022-12-23T21:59:34.741Z,100846.56
2022-12-23T22:02:02.968Z,100858.75
2022-12-23T22:04:30.534Z,100863.16
2022-12-23T22:06:58.058Z,100838.69
2022-12-23T22:09:25.599Z,100848.34
2022-12-23T22:11:56.492Z,100842.25
2022-12-23T22:14:24.000Z,100841.41
2022-12-23T22:16:51.658Z,100841.34
2022-12-23T22:19:19.271Z,100823.84
2022-12-23T22:21:46.894Z,100805.41
2022-12-23T22:24:14.533Z,100794.09
2022-12-23T22:26:42.129Z,100789.75
2022-12-23T22:29:11.334Z,100793.22
2022-12-23T22:31:49.118Z,100792.38
2022-12-23T22:34:21.468Z,100790.59
2022-12-23T22:36:49.993Z,100783.66
2022-12-23T22:39:21.647Z,100784.59
2022-12-23T22:41:52.524Z,100772.41
2022-12-23T22:44:20.759Z,100779.41
2022-12-23T22:46:48.800Z,100761.03
2022-12-23T22:49:17.283Z,100739.97
2022-12-23T22:51:47.635Z,100740.84
2022-12-23T22:54:15.420Z,100739.13
2022-12-23T22:56:43.223Z,100730.31
2022-12-23T22:59:20.207Z,100730.34
2022-12-23T23:01:48.703Z,100717.22
2022-12-23T23:04:28.569Z,100716.31
2022-12-23T23:07:01.972Z,100725.03
2022-12-23T23:21:54.668Z,100751.34
